Time;durP1;ratioP1;P1;durP2;ratioP2;P2;SDS_P1;SDS_P2;PMS_P1;PMS_P2;Temp;Humidity;BMP_temperature;BMP_pressure;BME280_temperature;BME280_humidity;BME280_pressure;Samples;Min_cycle;Max_cycle;Signal;HPM_P1;HPM_P2
2022/06/24 00:00:52;;;;;;;;;;;;;;;28.84;49.88;100705.09;4999790;28;19921;-76
2022/06/24 00:03:18;;;;;;;;;;;;;;;28.56;51.30;100693.97;4998680;28;20004;-76
2022/06/24 00:05:43;;;;;;;;;;;;;;;28.97;49.98;100684.50;4995433;28;19956;-76
2022/06/24 00:08:09;;;;;;;;;;;;;;;29.00;49.70;100680.25;4995386;28;19929;-72
2022/06/24 00:10:35;;;;;;;;;;;;;;;29.19;49.54;100685.94;5002541;28;20286;-73
2022/06/24 00:13:02;;;;;;;;;;;;;;;29.69;47.88;100682.53;5015283;28;20385;-72
2022/06/24 00:15:29;;;;;;;;;;;;;;;29.97;46.93;100670.25;5007758;28;19917;-73
2022/06/24 00:17:54;;;;;;;;;;;;;;;29.83;46.96;100671.84;5016349;28;19944;-73
2022/06/24 00:20:20;;;;;;;;;;;;;;;30.13;46.50;100661.91;4997245;28;20437;-74
2022/06/24 00:22:50;;;;;;;;;;;;;;;29.70;47.25;100659.22;4990348;28;20463;-74
2022/06/24 00:25:20;;;;;;;;;;;;;;;28.94;49.10;100646.47;5004919;28;19949;-73
2022/06/24 00:28:04;;;;;;;;;;;;;;;29.23;48.13;100645.31;4998821;28;19932;-73
2022/06/24 00:30:34;;;;;;;;;;;;;;;29.43;47.79;100649.81;4999793;28;19924;-74
2022/06/24 00:33:10;;;;;;;;;;;;;;;29.64;47.00;100664.22;4995278;28;20310;-73
2022/06/24 00:35:37;;;;;;;;;;;;;;;29.76;46.45;100674.47;4995276;28;19922;-73
2022/06/24 00:38:19;;;;;;;;;;;;;;;30.10;45.58;100685.59;4999443;28;19925;-73
2022/06/24 00:40:47;;;;;;;;;;;;;;;29.26;47.36;100670.34;4994605;28;19933;-72
2022/06/24 00:43:19;;;;;;;;;;;;;;;29.05;48.87;100677.25;5012194;28;19922;-73
2022/06/24 00:45:48;;;;;;;;;;;;;;;28.89;49.70;100684.69;4990009;28;20420;-73
2022/06/24 00:48:14;;;;;;;;;;;;;;;28.53;51.24;100691.91;5022100;28;19995;-73
2022/06/24 00:50:42;;;;;;;;;;;;;;;29.04;50.36;100683.91;4995148;28;19921;-72
2022/06/24 00:53:07;;;;;;;;;;;;;;;29.30;49.57;100687.06;5001472;28;19921;-73
2022/06/24 00:55:36;;;;;;;;;;;;;;;28.38;52.44;100675.22;4995399;28;19926;-75
2022/06/24 00:58:02;;;;;;;;;;;;;;;29.04;50.53;100679.19;5001415;28;19930;-74
2022/06/24 01:00:29;;;;;;;;;;;;;;;28.84;50.81;100676.59;4995648;28;19922;-72
2022/06/24 01:02:59;;;;;;;;;;;;;;;28.79;51.14;100676.88;4999209;28;20432;-75
2022/06/24 01:05:24;;;;;;;;;;;;;;;28.60;51.64;100675.53;4993940;28;20111;-73
2022/06/24 01:07:50;;;;;;;;;;;;;;;28.01;53.52;100665.34;4997430;28;20368;-75
2022/06/24 01:10:15;;;;;;;;;;;;;;;27.08;56.67;100646.72;4995380;28;20424;-73
2022/06/24 01:12:40;;;;;;;;;;;;;;;27.48;55.54;100642.25;4993784;28;20416;-71
2022/06/24 01:15:06;;;;;;;;;;;;;;;27.59;54.66;100637.09;4991507;28;19965;-73
2022/06/24 01:17:31;;;;;;;;;;;;;;;27.85;54.21;100636.78;4988571;28;20005;-75
2022/06/24 01:19:57;;;;;;;;;;;;;;;27.77;53.95;100632.97;4998571;28;20005;-74
2022/06/24 01:22:25;;;;;;;;;;;;;;;28.11;53.44;100635.28;4994054;28;20341;-74
2022/06/24 01:24:50;;;;;;;;;;;;;;;28.14;52.75;100626.31;4996996;28;19961;-73
2022/06/24 01:27:16;;;;;;;;;;;;;;;28.46;51.63;100616.22;4994661;28;19960;-73
2022/06/24 01:29:41;;;;;;;;;;;;;;;28.76;50.79;100605.63;4994937;28;19925;-74
2022/06/24 01:32:06;;;;;;;;;;;;;;;28.37;51.44;100601.72;4995836;28;20038;-74
2022/06/24 01:34:32;;;;;;;;;;;;;;;28.82;50.03;100598.69;4997457;28;20353;-72
2022/06/24 01:36:57;;;;;;;;;;;;;;;28.56;50.66;100599.13;4995008;28;19929;-73
2022/06/24 01:39:22;;;;;;;;;;;;;;;28.54;50.44;100591.19;5000643;28;19922;-74
2022/06/24 01:41:48;;;;;;;;;;;;;;;28.61;49.59;100593.38;4994473;28;19948;-73
2022/06/24 01:44:13;;;;;;;;;;;;;;;29.37;47.74;100595.88;5000496;28;19921;-73
2022/06/24 01:46:38;;;;;;;;;;;;;;;29.72;46.93;100601.53;4996741;28;19921;-74
2022/06/24 01:49:04;;;;;;;;;;;;;;;29.40;47.83;100597.94;5003535;28;19926;-73
2022/06/24 01:51:31;;;;;;;;;;;;;;;29.55;47.23;100586.03;4989148;28;20486;-73
2022/06/24 01:53:56;;;;;;;;;;;;;;;28.26;50.51;100579.31;4998434;28;19952;-72
2022/06/24 01:56:22;;;;;;;;;;;;;;;28.46;49.89;100580.28;5005794;28;19964;-73
2022/06/24 01:58:47;;;;;;;;;;;;;;;29.00;48.29;100575.09;5009304;28;19926;-74
2022/06/24 02:01:12;;;;;;;;;;;;;;;29.36;47.09;100577.66;4993901;28;19932;-73
2022/06/24 02:03:38;;;;;;;;;;;;;;;28.70;49.14;100569.13;4988609;28;19922;-73
2022/06/24 02:06:05;;;;;;;;;;;;;;;29.46;46.38;100572.38;4995706;28;20389;-72
2022/06/24 02:08:30;;;;;;;;;;;;;;;28.71;48.33;100568.00;5004123;28;20370;-75
2022/06/24 02:13:40;;;;;;;;;;;;;;;28.37;49.54;100565.78;4994733;28;20190;-74
2022/06/24 02:16:06;;;;;;;;;;;;;;;28.39;49.94;100575.34;4997655;28;19922;-71
2022/06/24 02:18:31;;;;;;;;;;;;;;;28.93;47.71;100578.47;4993677;28;20397;-73
2022/06/24 02:20:58;;;;;;;;;;;;;;;28.51;48.78;100593.84;4998087;28;20416;-74
2022/06/24 02:23:24;;;;;;;;;;;;;;;27.40;52.07;100621.06;5002741;28;19921;-74
2022/06/24 02:25:50;;;;;;;;;;;;;;;27.67;52.21;100637.00;5002257;28;19929;-73
2022/06/24 02:28:16;;;;;;;;;;;;;;;27.58;53.67;100657.56;5013115;28;20103;-73
2022/06/24 02:30:42;;;;;;;;;;;;;;;27.49;54.35;100649.41;4997149;28;19917;-71
2022/06/24 02:33:08;;;;;;;;;;;;;;;27.80;53.22;100635.03;5002045;28;19917;-73
2022/06/24 02:35:33;;;;;;;;;;;;;;;27.58;54.19;100632.72;5006844;28;19922;-68
2022/06/24 02:37:59;;;;;;;;;;;;;;;27.66;54.54;100635.38;5005456;28;19922;-70
2022/06/24 02:43:20;;;;;;;;;;;;;;;27.09;57.06;100697.19;4997594;28;19948;-72
2022/06/24 02:45:48;;;;;;;;;;;;;;;26.84;58.19;100683.28;4996386;28;19926;-71
2022/06/24 02:48:14;;;;;;;;;;;;;;;26.91;58.94;100658.72;4992164;28;19926;-71
2022/06/24 02:50:41;;;;;;;;;;;;;;;26.20;62.18;100648.06;4997125;28;20004;-68
2022/06/24 02:53:06;;;;;;;;;;;;;;;26.66;60.64;100631.34;4997913;28;19940;-71
2022/06/24 02:55:31;;;;;;;;;;;;;;;26.14;61.90;100613.59;5002389;28;19922;-73
2022/06/24 02:57:56;;;;;;;;;;;;;;;25.87;62.31;100601.06;4996575;28;19925;-73
2022/06/24 03:00:22;;;;;;;;;;;;;;;25.64;63.08;100591.50;5002779;28;19928;-70
2022/06/24 03:02:47;;;;;;;;;;;;;;;25.13;64.53;100587.78;4997827;28;19921;-73
2022/06/24 03:05:12;;;;;;;;;;;;;;;25.42;63.78;100592.56;5001282;28;19925;-72
2022/06/24 03:07:38;;;;;;;;;;;;;;;25.53;64.08;100604.03;5001834;28;19921;-70
2022/06/24 03:10:03;;;;;;;;;;;;;;;25.65;62.46;100593.91;5003735;28;19925;-71
2022/06/24 03:12:29;;;;;;;;;;;;;;;25.13;64.53;100596.03;5001528;28;19917;-72
2022/06/24 03:14:54;;;;;;;;;;;;;;;25.39;64.49;100612.47;4993986;28;19920;-74
2022/06/24 03:17:19;;;;;;;;;;;;;;;25.43;63.91;100629.97;5012030;28;20362;-71
2022/06/24 03:19:44;;;;;;;;;;;;;;;25.13;64.69;100634.53;4997480;28;19930;-71
2022/06/24 03:22:09;;;;;;;;;;;;;;;25.61;63.49;100638.97;4993614;28;19922;-73
2022/06/24 03:24:35;;;;;;;;;;;;;;;25.17;64.62;100634.69;5000735;28;19987;-71
2022/06/24 03:27:00;;;;;;;;;;;;;;;25.51;63.43;100633.81;5000905;28;20360;-71
2022/06/24 03:29:26;;;;;;;;;;;;;;;25.98;62.01;100641.66;4998820;28;20024;-71
2022/06/24 03:31:51;;;;;;;;;;;;;;;25.03;65.06;100632.13;5002661;28;19922;-70
2022/06/24 03:34:16;;;;;;;;;;;;;;;25.52;63.17;100618.91;5018561;28;20004;-72
2022/06/24 03:36:41;;;;;;;;;;;;;;;25.28;64.05;100613.94;5008179;28;20457;-70
2022/06/24 03:39:06;;;;;;;;;;;;;;;25.38;63.78;100610.03;5003052;28;20393;-71
2022/06/24 03:41:33;;;;;;;;;;;;;;;25.30;64.35;100610.88;5002785;28;20005;-71
2022/06/24 03:43:59;;;;;;;;;;;;;;;25.01;64.88;100608.84;4999699;28;19925;-73
2022/06/24 03:46:24;;;;;;;;;;;;;;;25.01;64.56;100598.66;5000787;28;19925;-72
2022/06/24 03:48:50;;;;;;;;;;;;;;;24.83;65.48;100591.56;4997784;28;19949;-72
2022/06/24 03:51:15;;;;;;;;;;;;;;;25.16;64.76;100594.56;5000276;28;19913;-72
2022/06/24 03:53:40;;;;;;;;;;;;;;;25.04;64.89;100591.69;4997577;28;19929;-72
2022/06/24 03:56:08;;;;;;;;;;;;;;;24.65;66.12;100573.44;4997416;28;20570;-72
2022/06/24 03:58:34;;;;;;;;;;;;;;;24.83;64.97;100579.75;4999863;28;20020;-70
2022/06/24 04:01:02;;;;;;;;;;;;;;;24.57;65.39;100582.50;5006940;28;20033;-70
2022/06/24 04:03:27;;;;;;;;;;;;;;;25.12;63.55;100575.16;5000104;28;19944;-72
2022/06/24 04:05:53;;;;;;;;;;;;;;;24.43;65.73;100588.16;5003583;28;19925;-70
2022/06/24 04:08:18;;;;;;;;;;;;;;;24.77;64.57;100600.28;5003900;28;20428;-72
2022/06/24 04:10:43;;;;;;;;;;;;;;;24.94;63.51;100594.78;5002763;28;20488;-70
2022/06/24 04:13:08;;;;;;;;;;;;;;;24.96;63.21;100585.06;5005025;28;19921;-71
2022/06/24 04:15:34;;;;;;;;;;;;;;;25.17;61.29;100597.00;5007956;28;20369;-70
2022/06/24 04:17:59;;;;;;;;;;;;;;;24.76;62.68;100605.00;5004820;28;20362;-71
2022/06/24 04:20:24;;;;;;;;;;;;;;;24.69;62.88;100598.31;5005760;28;20345;-73
2022/06/24 04:22:50;;;;;;;;;;;;;;;25.60;59.88;100591.34;4996230;28;20003;-71
2022/06/24 04:25:15;;;;;;;;;;;;;;;25.47;60.25;100588.84;5002104;28;20319;-71
2022/06/24 04:27:40;;;;;;;;;;;;;;;25.14;61.14;100589.38;4996656;28;19961;-71
2022/06/24 04:30:07;;;;;;;;;;;;;;;25.40;60.40;100592.09;5001786;28;19917;-70
2022/06/24 04:32:32;;;;;;;;;;;;;;;24.98;61.88;100582.78;4992273;28;20013;-72
2022/06/24 04:34:57;;;;;;;;;;;;;;;25.22;60.69;100577.56;5012534;28;19997;-71
2022/06/24 04:37:23;;;;;;;;;;;;;;;24.82;62.09;100580.91;5002339;28;19922;-72
2022/06/24 04:39:48;;;;;;;;;;;;;;;24.74;63.07;100579.78;4996889;28;19934;-69
2022/06/24 04:42:13;;;;;;;;;;;;;;;25.01;61.94;100567.59;5012562;28;19925;-73
2022/06/24 04:44:39;;;;;;;;;;;;;;;24.52;63.87;100568.13;4996496;28;20361;-72
2022/06/24 04:47:04;;;;;;;;;;;;;;;25.23;61.98;100575.63;4999076;28;19984;-72
2022/06/24 04:49:29;;;;;;;;;;;;;;;25.33;61.10;100575.25;4997018;28;20024;-72
2022/06/24 04:51:54;;;;;;;;;;;;;;;24.96;62.42;100578.78;5001541;28;20324;-72
2022/06/24 04:54:20;;;;;;;;;;;;;;;25.30;61.67;100566.88;5003380;28;19921;-71
2022/06/24 04:56:45;;;;;;;;;;;;;;;25.50;61.13;100572.47;4996179;28;19929;-74
2022/06/24 04:59:10;;;;;;;;;;;;;;;25.32;61.64;100565.38;5001123;28;19931;-72
2022/06/24 05:01:36;;;;;;;;;;;;;;;25.17;61.98;100558.50;4991628;28;19921;-74
2022/06/24 05:04:02;;;;;;;;;;;;;;;25.56;60.97;100576.63;5007978;28;19921;-73
2022/06/24 05:06:27;;;;;;;;;;;;;;;25.30;61.56;100591.63;5011751;28;19991;-70
2022/06/24 05:08:52;;;;;;;;;;;;;;;25.68;60.17;100589.69;5015308;28;19929;-72
2022/06/24 05:11:18;;;;;;;;;;;;;;;25.58;60.98;100595.56;5015358;28;19925;-73
2022/06/24 05:13:43;;;;;;;;;;;;;;;25.32;61.78;100605.84;5015376;28;19933;-72
2022/06/24 05:16:08;;;;;;;;;;;;;;;25.11;62.40;100586.50;5011666;28;19948;-70
2022/06/24 05:18:34;;;;;;;;;;;;;;;25.62;60.51;100605.59;5014728;28;19925;-70
2022/06/24 05:20:59;;;;;;;;;;;;;;;26.01;59.56;100607.97;5013668;28;19979;-71
2022/06/24 05:23:24;;;;;;;;;;;;;;;25.49;61.08;100614.88;5014597;28;21177;-70
2022/06/24 05:25:49;;;;;;;;;;;;;;;25.71;60.05;100608.31;5010308;28;20313;-71
2022/06/24 05:28:15;;;;;;;;;;;;;;;25.66;60.86;100612.06;5008966;28;19952;-71
2022/06/24 05:30:40;;;;;;;;;;;;;;;26.16;58.81;100605.81;5009549;28;19967;-72
2022/06/24 05:33:05;;;;;;;;;;;;;;;26.01;59.98;100604.41;5019888;28;19925;-71
2022/06/24 05:35:30;;;;;;;;;;;;;;;25.49;61.35;100619.56;5007632;28;19936;-71
2022/06/24 05:37:55;;;;;;;;;;;;;;;25.37;62.10;100617.50;5008269;28;20336;-73
2022/06/24 05:40:21;;;;;;;;;;;;;;;25.91;60.30;100613.84;5007721;28;19933;-73
2022/06/24 05:42:46;;;;;;;;;;;;;;;25.38;61.44;100615.53;5005716;28;20366;-73
2022/06/24 05:45:11;;;;;;;;;;;;;;;25.71;60.38;100613.81;4999629;28;19928;-73
2022/06/24 05:47:36;;;;;;;;;;;;;;;25.35;60.84;100611.50;4998695;28;19926;-72
2022/06/24 05:50:02;;;;;;;;;;;;;;;26.02;59.36;100611.53;5018762;28;19933;-73
2022/06/24 05:55:11;;;;;;;;;;;;;;;25.40;60.32;100616.84;5003747;28;19929;-72
2022/06/24 05:57:36;;;;;;;;;;;;;;;25.61;59.87;100603.19;5013747;28;20332;-74
2022/06/24 06:00:02;;;;;;;;;;;;;;;24.81;61.86;100599.31;5014388;28;20289;-74
2022/06/24 06:02:27;;;;;;;;;;;;;;;24.46;62.08;100605.13;5018279;28;19929;-73
2022/06/24 06:04:53;;;;;;;;;;;;;;;24.70;61.47;100592.53;5017977;28;19953;-76
2022/06/24 06:07:19;;;;;;;;;;;;;;;25.19;60.06;100597.47;5019175;28;19936;-73
2022/06/24 06:09:44;;;;;;;;;;;;;;;24.72;61.69;100604.03;5018368;28;19925;-72
2022/06/24 06:12:10;;;;;;;;;;;;;;;25.76;58.43;100591.59;5018700;28;20004;-73
2022/06/24 06:14:35;;;;;;;;;;;;;;;25.74;58.59;100600.19;5011449;28;19952;-75
2022/06/24 06:17:01;;;;;;;;;;;;;;;25.26;59.15;100605.22;5011944;28;19928;-71
2022/06/24 06:19:26;;;;;;;;;;;;;;;25.12;59.86;100601.84;5006892;28;19925;-72
2022/06/24 06:21:52;;;;;;;;;;;;;;;25.43;58.65;100602.44;4998880;28;19933;-72
2022/06/24 06:24:17;;;;;;;;;;;;;;;25.34;59.22;100609.88;5007122;28;19921;-74
2022/06/24 06:26:42;;;;;;;;;;;;;;;25.59;58.31;100608.22;5004003;28;19929;-75
2022/06/24 06:29:07;;;;;;;;;;;;;;;25.08;59.96;100600.91;5009250;28;19964;-75
2022/06/24 06:31:33;;;;;;;;;;;;;;;25.01;60.83;100620.66;5002793;28;19988;-73
2022/06/24 06:33:58;;;;;;;;;;;;;;;26.02;57.26;100634.34;5004209;28;19921;-74
2022/06/24 06:36:23;;;;;;;;;;;;;;;25.62;58.24;100654.31;4999738;28;19918;-74
2022/06/24 06:38:48;;;;;;;;;;;;;;;25.90;57.56;100650.81;5000860;28;19921;-74
2022/06/24 06:41:14;;;;;;;;;;;;;;;26.23;56.55;100633.63;4997910;28;20040;-73
2022/06/24 06:43:39;;;;;;;;;;;;;;;25.93;56.91;100633.63;5002451;28;20065;-73
2022/06/24 06:46:07;;;;;;;;;;;;;;;25.97;57.27;100633.75;5005056;28;19926;-73
2022/06/24 06:48:32;;;;;;;;;;;;;;;26.13;56.90;100629.31;5003193;28;19957;-74
2022/06/24 06:50:58;;;;;;;;;;;;;;;26.47;56.23;100639.28;5004489;28;20019;-74
2022/06/24 06:53:24;;;;;;;;;;;;;;;26.22;56.96;100643.81;5008607;28;19968;-73
2022/06/24 06:55:50;;;;;;;;;;;;;;;26.90;55.18;100642.53;5006074;28;20595;-72
2022/06/24 06:58:15;;;;;;;;;;;;;;;27.36;55.03;100641.44;5011241;28;19937;-73
2022/06/24 07:00:40;;;;;;;;;;;;;;;26.95;54.37;100643.13;5016278;28;19921;-74
2022/06/24 07:03:06;;;;;;;;;;;;;;;27.00;54.45;100649.56;5012818;28;20038;-73
2022/06/24 07:05:31;;;;;;;;;;;;;;;27.44;53.58;100654.34;5013102;28;19944;-73
2022/06/24 07:07:56;;;;;;;;;;;;;;;27.56;53.71;100651.56;5012614;28;20278;-73
2022/06/24 07:10:22;;;;;;;;;;;;;;;27.54;53.12;100648.34;4953186;28;19933;-73
2022/06/24 07:12:47;;;;;;;;;;;;;;;27.46;52.97;100647.31;4989289;28;19918;-73
2022/06/24 07:15:14;;;;;;;;;;;;;;;27.65;52.86;100644.81;4994727;28;19993;-74
2022/06/24 07:17:40;;;;;;;;;;;;;;;27.63;51.89;100654.59;4993180;28;20000;-74
2022/06/24 07:20:05;;;;;;;;;;;;;;;27.55;52.45;100655.50;5008350;28;19929;-73
2022/06/24 07:22:30;;;;;;;;;;;;;;;27.22;53.30;100662.97;5014406;28;19926;-72
2022/06/24 07:24:56;;;;;;;;;;;;;;;26.87;54.09;100666.06;5009408;28;20493;-73
2022/06/24 07:27:21;;;;;;;;;;;;;;;26.82;54.67;100666.28;5010808;28;20362;-72
2022/06/24 07:29:46;;;;;;;;;;;;;;;26.41;55.65;100663.50;5014854;28;19921;-73
2022/06/24 07:32:13;;;;;;;;;;;;;;;26.87;54.72;100659.72;5009605;28;20443;-74
2022/06/24 07:34:38;;;;;;;;;;;;;;;26.91;55.20;100658.72;5009950;28;20058;-74
2022/06/24 07:37:04;;;;;;;;;;;;;;;26.89;54.82;100654.69;5014174;28;19921;-74
2022/06/24 07:39:29;;;;;;;;;;;;;;;26.25;56.63;100656.13;5011160;28;20340;-74
2022/06/24 07:41:55;;;;;;;;;;;;;;;26.56;56.00;100656.56;5006524;28;20340;-74
2022/06/24 07:44:20;;;;;;;;;;;;;;;26.35;56.17;100645.53;5004590;28;20049;-74
2022/06/24 07:46:46;;;;;;;;;;;;;;;26.74;55.82;100647.84;5027144;28;20008;-75
2022/06/24 07:49:11;;;;;;;;;;;;;;;26.86;55.08;100645.16;5009638;28;19932;-75
2022/06/24 07:51:37;;;;;;;;;;;;;;;26.42;56.84;100665.09;5009595;28;19928;-75
2022/06/24 07:54:02;;;;;;;;;;;;;;;26.22;57.65;100670.59;5012216;28;19968;-73
2022/06/24 07:59:11;;;;;;;;;;;;;;;26.87;55.20;100657.78;5012759;28;19940;-75
2022/06/24 08:01:37;;;;;;;;;;;;;;;26.58;55.63;100655.09;5013902;28;19925;-74
2022/06/24 08:04:07;;;;;;;;;;;;;;;26.53;56.46;100651.72;5011498;28;19921;-75
2022/06/24 08:06:34;;;;;;;;;;;;;;;27.02;54.45;100650.84;5021043;28;19918;-74
2022/06/24 08:08:59;;;;;;;;;;;;;;;26.98;54.08;100654.63;5014454;28;19950;-76
2022/06/24 08:11:24;;;;;;;;;;;;;;;26.88;54.63;100664.94;5012969;28;19925;-76
2022/06/24 08:13:49;;;;;;;;;;;;;;;26.53;55.81;100657.25;5015090;28;20058;-75
2022/06/24 08:16:14;;;;;;;;;;;;;;;26.26;57.18;100663.28;5010329;28;20034;-75
2022/06/24 08:18:40;;;;;;;;;;;;;;;26.65;56.25;100666.38;5012784;28;20244;-75
2022/06/24 08:21:05;;;;;;;;;;;;;;;26.42;56.94;100667.03;5010182;28;19928;-74
2022/06/24 08:23:30;;;;;;;;;;;;;;;26.51;56.63;100665.84;5012867;28;20532;-75
2022/06/24 08:25:56;;;;;;;;;;;;;;;26.04;57.17;100667.88;5011673;28;19936;-76
2022/06/24 08:28:21;;;;;;;;;;;;;;;25.94;56.57;100664.72;5013389;28;20000;-74
2022/06/24 08:30:46;;;;;;;;;;;;;;;26.58;55.60;100659.78;5013396;28;19921;-74
2022/06/24 08:33:12;;;;;;;;;;;;;;;26.07;56.82;100660.94;5016605;28;19925;-76
2022/06/24 08:35:37;;;;;;;;;;;;;;;26.02;56.53;100658.38;5013395;28;19921;-75
2022/06/24 08:38:02;;;;;;;;;;;;;;;25.88;57.20;100663.28;5016076;28;19961;-76
2022/06/24 08:40:28;;;;;;;;;;;;;;;25.96;56.92;100648.66;4996963;28;19925;-75
2022/06/24 08:42:55;;;;;;;;;;;;;;;25.60;58.12;100651.91;4992922;28;19968;-76
2022/06/24 08:45:20;;;;;;;;;;;;;;;26.43;55.67;100647.44;5000174;28;19917;-76
2022/06/24 08:47:47;;;;;;;;;;;;;;;25.88;57.25;100647.59;4999424;28;20662;-74
2022/06/24 08:50:12;;;;;;;;;;;;;;;25.93;56.97;100649.31;5000232;28;20021;-74
2022/06/24 08:52:39;;;;;;;;;;;;;;;26.33;55.89;100647.00;4998408;28;20443;-75
2022/06/24 08:55:05;;;;;;;;;;;;;;;26.38;55.77;100655.88;4995857;28;19926;-75
2022/06/24 08:57:31;;;;;;;;;;;;;;;25.44;57.53;100661.00;4995105;28;20456;-75
2022/06/24 08:59:56;;;;;;;;;;;;;;;25.89;57.15;100670.41;5002265;28;19921;-77
2022/06/24 09:02:21;;;;;;;;;;;;;;;26.48;54.46;100663.75;5000641;28;20279;-76
2022/06/24 09:04:47;;;;;;;;;;;;;;;26.23;56.25;100672.19;4993216;28;19984;-77
2022/06/24 09:07:25;;;;;;;;;;;;;;;26.67;54.54;100672.34;4996781;28;20001;-77
2022/06/24 09:10:01;;;;;;;;;;;;;;;25.53;57.55;100668.13;4998092;28;20340;-76
2022/06/24 09:12:46;;;;;;;;;;;;;;;26.54;55.17;100656.91;5004976;28;20027;-76
2022/06/24 09:15:13;;;;;;;;;;;;;;;26.59;54.48;100662.22;5000804;28;20397;-77
2022/06/24 09:17:38;;;;;;;;;;;;;;;27.08;53.77;100668.81;4994577;28;19925;-78
2022/06/24 09:20:05;;;;;;;;;;;;;;;27.05;54.09;100679.69;4998444;28;19943;-75
2022/06/24 09:22:30;;;;;;;;;;;;;;;26.84;53.21;100683.28;4993372;28;19949;-77
2022/06/24 09:24:58;;;;;;;;;;;;;;;26.54;55.14;100692.72;5000113;28;20366;-72
2022/06/24 09:27:25;;;;;;;;;;;;;;;26.31;54.77;100687.88;5005338;28;19925;-75
2022/06/24 09:29:50;;;;;;;;;;;;;;;25.99;55.85;100690.13;5010956;28;19921;-74
2022/06/24 09:32:16;;;;;;;;;;;;;;;26.62;55.48;100691.06;5012024;28;20057;-75
2022/06/24 09:35:20;;;;;;;;;;;;;;;26.15;56.63;100687.63;5010129;28;19929;-78
2022/06/24 09:37:46;;;;;;;;;;;;;;;26.72;54.88;100682.41;4978659;28;20416;-76
2022/06/24 09:40:19;;;;;;;;;;;;;;;26.84;54.95;100685.25;4981066;28;19929;-75
2022/06/24 09:43:10;;;;;;;;;;;;;;;25.93;56.64;100693.38;4965763;28;21096;-76
2022/06/24 09:45:46;;;;;;;;;;;;;;;26.20;55.42;100684.69;4978469;28;19917;-76
2022/06/24 09:48:12;;;;;;;;;;;;;;;26.46;54.40;100679.81;4977688;28;20385;-74
2022/06/24 09:50:39;;;;;;;;;;;;;;;26.30;55.62;100689.03;4981277;28;19937;-77
2022/06/24 09:53:05;;;;;;;;;;;;;;;26.26;55.03;100682.56;4977390;28;19932;-77
2022/06/24 09:55:30;;;;;;;;;;;;;;;26.31;54.66;100685.94;4979222;28;19922;-77
2022/06/24 09:57:55;;;;;;;;;;;;;;;25.81;56.29;100682.25;4981657;28;19932;-76
2022/06/24 10:03:07;;;;;;;;;;;;;;;26.08;55.40;100698.38;4975667;28;20504;-74
2022/06/24 10:05:34;;;;;;;;;;;;;;;26.28;55.13;100697.59;4979854;28;20002;-74
2022/06/24 10:07:59;;;;;;;;;;;;;;;26.41;55.22;100691.06;4980931;28;20778;-76
2022/06/24 10:10:26;;;;;;;;;;;;;;;27.22;53.48;100696.09;5005107;28;20404;-75
2022/06/24 10:12:56;;;;;;;;;;;;;;;26.35;54.83;100694.31;4993647;28;19926;-73
2022/06/24 10:15:21;;;;;;;;;;;;;;;27.27;52.07;100688.41;5009015;28;19948;-75
2022/06/24 10:17:47;;;;;;;;;;;;;;;27.37;53.00;100692.72;5002611;28;19933;-75
2022/06/24 10:20:13;;;;;;;;;;;;;;;26.72;53.78;100693.44;5001057;28;19926;-73
2022/06/24 10:22:51;;;;;;;;;;;;;;;26.55;54.34;100685.28;4992994;28;20063;-73
2022/06/24 10:25:36;;;;;;;;;;;;;;;26.36;54.55;100695.97;4997983;28;19961;-75
2022/06/24 10:28:01;;;;;;;;;;;;;;;26.92;54.05;100696.22;5004655;28;19976;-75
2022/06/24 10:30:48;;;;;;;;;;;;;;;26.93;52.08;100692.28;5007111;28;19917;-74
2022/06/24 10:33:20;;;;;;;;;;;;;;;27.23;52.41;100694.94;4983818;28;19926;-76
2022/06/24 10:35:57;;;;;;;;;;;;;;;26.81;54.13;100699.72;4982777;28;19964;-74
2022/06/24 10:38:24;;;;;;;;;;;;;;;27.42;51.57;100696.06;4990964;28;19976;-75
2022/06/24 10:40:50;;;;;;;;;;;;;;;27.47;52.02;100703.34;4986937;28;20179;-73
2022/06/24 10:43:31;;;;;;;;;;;;;;;27.71;50.56;100700.63;4981223;28;20013;-62
2022/06/24 10:46:12;;;;;;;;;;;;;;;27.98;50.03;100705.53;4981872;28;19925;-63
2022/06/24 10:48:43;;;;;;;;;;;;;;;27.67;50.03;100708.00;4983248;28;20374;-63
2022/06/24 10:51:15;;;;;;;;;;;;;;;27.96;50.01;100702.28;4985321;28;20394;-62
2022/06/24 10:53:59;;;;;;;;;;;;;;;27.69;49.61;100697.41;4985299;28;20017;-63
2022/06/24 10:56:41;;;;;;;;;;;;;;;28.57;48.25;100697.56;4984788;28;19929;-62
2022/06/24 10:59:06;;;;;;;;;;;;;;;28.76;47.19;100694.97;4980589;28;20430;-63
2022/06/24 11:01:32;;;;;;;;;;;;;;;27.76;50.26;100697.63;4984735;28;19929;-63
2022/06/24 11:03:59;;;;;;;;;;;;;;;28.32;48.74;100696.78;4985996;28;19921;-63
2022/06/24 11:06:24;;;;;;;;;;;;;;;28.03;49.38;100694.22;5005289;28;19917;-63
2022/06/24 11:08:49;;;;;;;;;;;;;;;28.31;48.77;100686.84;5004545;28;19947;-63
2022/06/24 11:11:26;;;;;;;;;;;;;;;29.08;46.51;100691.16;4999809;28;19968;-63
2022/06/24 11:13:51;;;;;;;;;;;;;;;28.88;47.01;100692.16;4997051;28;19944;-63
2022/06/24 11:16:17;;;;;;;;;;;;;;;28.90;46.66;100691.81;4999406;28;19921;-62
2022/06/24 11:18:42;;;;;;;;;;;;;;;29.04;47.23;100692.22;4996978;28;19945;-62
2022/06/24 11:21:09;;;;;;;;;;;;;;;29.12;45.82;100688.50;5003104;28;19991;-63
2022/06/24 11:23:39;;;;;;;;;;;;;;;28.76;45.98;100694.16;5008305;28;20414;-62
2022/06/24 11:26:18;;;;;;;;;;;;;;;28.43;47.99;100688.78;5009564;28;19925;-61
2022/06/24 11:28:53;;;;;;;;;;;;;;;27.95;48.67;100694.34;5003029;28;19921;-62
2022/06/24 11:31:18;;;;;;;;;;;;;;;28.98;46.80;100685.31;4998921;28;19968;-62
2022/06/24 11:33:44;;;;;;;;;;;;;;;29.48;45.31;100691.13;5012360;28;20311;-62
2022/06/24 11:36:10;;;;;;;;;;;;;;;29.81;44.72;100694.38;4994279;28;19933;-63
2022/06/24 11:38:48;;;;;;;;;;;;;;;29.11;45.08;100693.22;4993641;28;19932;-62
2022/06/24 11:41:21;;;;;;;;;;;;;;;29.16;44.38;100692.19;4995892;28;20313;-63
2022/06/24 11:43:49;;;;;;;;;;;;;;;29.71;43.94;100691.31;4999716;28;19949;-62
2022/06/24 11:46:15;;;;;;;;;;;;;;;29.64;43.51;100683.59;4996376;28;20389;-62
2022/06/24 11:48:40;;;;;;;;;;;;;;;29.32;44.23;100691.09;4992619;28;19932;-63
2022/06/24 11:51:15;;;;;;;;;;;;;;;28.80;45.66;100684.00;4996094;28;20008;-62
2022/06/24 11:53:42;;;;;;;;;;;;;;;29.37;44.17;100687.25;5004704;28;20148;-63
2022/06/24 11:56:08;;;;;;;;;;;;;;;28.81;44.75;100691.16;5001465;28;19922;-63
2022/06/24 11:58:35;;;;;;;;;;;;;;;28.93;44.72;100694.69;5005452;28;20028;-63
2022/06/24 12:01:02;;;;;;;;;;;;;;;29.15;44.05;100688.63;5009121;28;20004;-62
2022/06/24 12:03:28;;;;;;;;;;;;;;;28.17;47.27;100688.34;5004182;28;20012;-62
2022/06/24 12:05:53;;;;;;;;;;;;;;;28.25;47.28;100690.19;4997091;28;20004;-63
2022/06/24 12:08:19;;;;;;;;;;;;;;;28.94;45.56;100681.66;4998237;28;19929;-71
2022/06/24 12:10:54;;;;;;;;;;;;;;;28.97;45.39;100683.72;5001742;28;20011;-70
2022/06/24 12:13:27;;;;;;;;;;;;;;;29.64;44.15;100697.44;4992598;28;20493;-72
2022/06/24 12:15:53;;;;;;;;;;;;;;;29.44;44.33;100696.53;4995722;28;20004;-72
2022/06/24 12:18:19;;;;;;;;;;;;;;;29.48;44.29;100693.88;4997174;28;19914;-71
2022/06/24 12:21:14;;;;;;;;;;;;;;;29.17;44.51;100700.16;4991636;28;19929;-72
2022/06/24 12:23:42;;;;;;;;;;;;;;;30.11;42.43;100697.50;4994631;28;19921;-71
2022/06/24 12:26:18;;;;;;;;;;;;;;;29.52;44.25;100708.63;5002455;28;20004;-71
2022/06/24 12:28:44;;;;;;;;;;;;;;;29.88;42.99;100705.63;4994110;28;19922;-70
2022/06/24 12:31:10;;;;;;;;;;;;;;;30.28;42.71;100706.28;5002248;28;19980;-71
2022/06/24 12:33:47;;;;;;;;;;;;;;;29.84;43.71;100698.38;5002480;28;19924;-72
2022/06/24 12:36:13;;;;;;;;;;;;;;;30.17;43.20;100698.84;5003376;28;20179;-72
2022/06/24 12:38:40;;;;;;;;;;;;;;;30.50;42.66;100695.66;5003097;28;19925;-71
2022/06/24 12:41:10;;;;;;;;;;;;;;;29.70;44.23;100698.03;5002040;28;20082;-70
2022/06/24 12:43:36;;;;;;;;;;;;;;;29.92;43.21;100689.09;5006638;28;19929;-72
2022/06/24 12:46:04;;;;;;;;;;;;;;;31.21;42.38;100689.66;5002969;28;20478;-72
2022/06/24 12:51:13;;;;;;;;;;;;;;;31.23;40.46;100676.22;5002497;28;19929;-72